Terminal Aerodrome Forecast
Issued by NWS

Home | Current Version | Previous Version | Graphics & Text | Print | Product List | Glossary On
Versions: 1 2 3 4 5 6 7 8 9 10 11 12 13 14 15 16 17 18 19 20
716
FTUS43 KGRB 201740
TAFCWA
TAF
KCWA 201740Z 2018/2118 19010G16KT P6SM FEW250
     FM210100 17007KT P6SM FEW250 WS020/19040KT
     FM211300 17008G16KT P6SM BKN150
     FM211600 18011G20KT P6SM BKN060=

USA.gov is the U.S. government's official web portal to all federal, state and local government web resources and services.